Time;durP1;ratioP1;P1;durP2;ratioP2;P2;SDS_P1;SDS_P2;PMS_P1;PMS_P2;Temp;Humidity;BMP_temperature;BMP_pressure;BME280_temperature;BME280_humidity;BME280_pressure;Samples;Min_cycle;Max_cycle;Signal;HPM_P1;HPM_P2
2023/06/17 00:00:32;;;;;;;;;;;26.20;42.20;;;;;;4899768;29;19911;-89
2023/06/17 00:02:57;;;;;;;;;;;26.20;42.20;;;;;;4916451;29;20207;-89
2023/06/17 00:05:26;;;;;;;;;;;26.20;42.50;;;;;;4925405;29;20299;-89
2023/06/17 00:07:52;;;;;;;;;;;26.20;42.30;;;;;;4916821;29;19919;-89
2023/06/17 00:10:20;;;;;;;;;;;26.20;42.30;;;;;;4915157;29;19911;-89
2023/06/17 00:12:49;;;;;;;;;;;26.20;42.40;;;;;;4913215;29;19911;-89
2023/06/17 00:15:18;;;;;;;;;;;26.10;42.30;;;;;;4905250;29;20022;-89
2023/06/17 00:17:44;;;;;;;;;;;26.10;42.40;;;;;;4914778;29;20018;-89
2023/06/17 00:20:11;;;;;;;;;;;26.10;42.40;;;;;;4916244;29;20074;-89
2023/06/17 00:22:38;;;;;;;;;;;26.10;42.40;;;;;;4914833;29;19908;-89
2023/06/17 00:25:07;;;;;;;;;;;26.10;42.40;;;;;;4915525;29;19919;-89
2023/06/17 00:27:36;;;;;;;;;;;26.10;42.50;;;;;;4917381;29;19922;-89
2023/06/17 00:30:04;;;;;;;;;;;26.10;42.50;;;;;;4918862;29;19978;-89
2023/06/17 00:32:30;;;;;;;;;;;26.10;42.50;;;;;;4917921;29;19954;-89
2023/06/17 00:34:56;;;;;;;;;;;26.10;42.60;;;;;;4917188;29;19921;-89
2023/06/17 00:37:21;;;;;;;;;;;26.00;42.50;;;;;;4914549;29;19915;-89
2023/06/17 00:39:47;;;;;;;;;;;26.00;42.60;;;;;;4917155;29;20010;-89
2023/06/17 00:42:16;;;;;;;;;;;26.00;42.60;;;;;;4917006;29;19915;-89
2023/06/17 00:44:41;;;;;;;;;;;26.00;42.60;;;;;;4917825;29;20006;-89
2023/06/17 00:47:08;;;;;;;;;;;26.00;42.60;;;;;;4918026;29;20263;-89
2023/06/17 00:49:36;;;;;;;;;;;26.00;42.60;;;;;;4919202;29;20056;-89
2023/06/17 00:52:07;;;;;;;;;;;25.90;42.60;;;;;;4919485;29;20409;-89
2023/06/17 00:54:37;;;;;;;;;;;25.90;42.60;;;;;;4918647;29;19911;-89
2023/06/17 00:57:03;;;;;;;;;;;25.90;42.60;;;;;;4914667;29;20152;-89
2023/06/17 00:59:31;;;;;;;;;;;25.90;42.70;;;;;;4914950;29;19911;-89
2023/06/17 01:01:57;;;;;;;;;;;25.90;42.70;;;;;;4913865;29;20303;-89
2023/06/17 01:04:23;;;;;;;;;;;25.90;42.70;;;;;;4914462;29;19962;-89
2023/06/17 01:07:00;;;;;;;;;;;25.80;42.60;;;;;;4914708;29;19915;-89
2023/06/17 01:09:28;;;;;;;;;;;25.80;42.60;;;;;;4914455;29;19986;-89
2023/06/17 01:11:55;;;;;;;;;;;25.80;42.60;;;;;;4913217;29;20075;-89
2023/06/17 01:14:21;;;;;;;;;;;25.80;42.70;;;;;;4916319;29;19911;-89
2023/06/17 01:16:50;;;;;;;;;;;25.80;42.70;;;;;;4917611;29;19922;-89
2023/06/17 01:19:26;;;;;;;;;;;25.70;42.70;;;;;;4917141;29;19967;-89
2023/06/17 01:21:52;;;;;;;;;;;25.70;42.70;;;;;;4917813;29;19946;-89
2023/06/17 01:24:25;;;;;;;;;;;25.70;42.70;;;;;;4918259;29;19979;-88
2023/06/17 01:26:55;;;;;;;;;;;25.70;42.80;;;;;;4917646;29;19915;-89
2023/06/17 01:29:22;;;;;;;;;;;25.70;42.80;;;;;;4917829;29;19912;-90
2023/06/17 01:31:49;;;;;;;;;;;25.70;42.80;;;;;;4917974;29;19919;-89
2023/06/17 01:34:18;;;;;;;;;;;25.70;42.90;;;;;;4918000;29;19911;-89
2023/06/17 01:36:50;;;;;;;;;;;25.60;42.80;;;;;;4918074;29;19915;-89
2023/06/17 01:39:17;;;;;;;;;;;25.60;42.80;;;;;;4917109;29;19919;-89
2023/06/17 01:41:46;;;;;;;;;;;25.60;43.20;;;;;;4918466;29;19955;-89
2023/06/17 01:44:15;;;;;;;;;;;25.60;42.90;;;;;;4919164;29;20231;-89
2023/06/17 01:46:42;;;;;;;;;;;25.60;42.90;;;;;;4917694;29;19926;-89
2023/06/17 01:49:08;;;;;;;;;;;25.60;42.90;;;;;;4916345;29;19911;-89
2023/06/17 01:51:35;;;;;;;;;;;25.60;42.90;;;;;;4915349;29;19915;-89
2023/06/17 01:54:03;;;;;;;;;;;25.50;42.90;;;;;;4917652;29;20398;-89
2023/06/17 01:56:32;;;;;;;;;;;25.50;43.00;;;;;;4917212;29;20153;-89
2023/06/17 01:58:58;;;;;;;;;;;25.50;43.00;;;;;;4915709;29;20052;-89
2023/06/17 02:01:36;;;;;;;;;;;25.50;43.00;;;;;;4915961;29;20314;-89
2023/06/17 02:04:04;;;;;;;;;;;25.40;43.00;;;;;;4915634;29;19911;-89
2023/06/17 02:06:32;;;;;;;;;;;25.40;43.00;;;;;;4917141;29;20028;-89
2023/06/17 02:09:01;;;;;;;;;;;25.40;43.10;;;;;;4917002;29;20286;-89
2023/06/17 02:11:29;;;;;;;;;;;25.40;43.10;;;;;;4917639;29;19946;-89
2023/06/17 02:13:55;;;;;;;;;;;25.40;43.10;;;;;;4918457;29;19918;-89
2023/06/17 02:16:21;;;;;;;;;;;25.30;43.00;;;;;;4918036;29;19911;-89
2023/06/17 02:18:48;;;;;;;;;;;25.30;43.10;;;;;;4917597;29;19990;-89
2023/06/17 02:21:13;;;;;;;;;;;25.30;43.10;;;;;;4918153;29;19942;-89
2023/06/17 02:23:42;;;;;;;;;;;25.30;43.10;;;;;;4918142;29;20045;-89
2023/06/17 02:26:11;;;;;;;;;;;25.30;43.10;;;;;;4917783;29;19915;-90
2023/06/17 02:28:36;;;;;;;;;;;25.20;43.00;;;;;;4918622;29;19974;-89
2023/06/17 02:31:02;;;;;;;;;;;25.20;43.10;;;;;;4918338;29;19911;-89
2023/06/17 02:33:28;;;;;;;;;;;25.20;43.10;;;;;;4919158;29;19911;-89
2023/06/17 02:35:56;;;;;;;;;;;25.20;43.10;;;;;;4919830;29;19963;-89
2023/06/17 02:38:26;;;;;;;;;;;25.20;43.10;;;;;;4919114;29;19918;-89
2023/06/17 02:40:51;;;;;;;;;;;25.20;43.10;;;;;;4919685;29;20203;-89
2023/06/17 02:43:16;;;;;;;;;;;25.20;43.10;;;;;;4918326;29;20279;-90
2023/06/17 02:45:42;;;;;;;;;;;25.10;43.10;;;;;;4917050;29;19955;-89
2023/06/17 02:48:08;;;;;;;;;;;25.10;43.10;;;;;;4918497;29;20264;-90
2023/06/17 02:50:36;;;;;;;;;;;25.10;43.10;;;;;;4918373;29;19922;-89
2023/06/17 02:53:04;;;;;;;;;;;25.10;43.10;;;;;;4917779;29;20264;-90
2023/06/17 02:55:30;;;;;;;;;;;25.10;43.10;;;;;;4918962;29;19915;-89
2023/06/17 02:57:55;;;;;;;;;;;25.10;43.10;;;;;;4918179;29;20021;-89
2023/06/17 03:00:21;;;;;;;;;;;25.10;43.10;;;;;;4917978;29;20013;-89
2023/06/17 03:02:47;;;;;;;;;;;25.00;43.10;;;;;;4918684;29;19926;-90
2023/06/17 03:05:14;;;;;;;;;;;25.00;43.10;;;;;;4917961;29;20005;-90
2023/06/17 03:07:40;;;;;;;;;;;25.00;43.10;;;;;;4916948;29;20290;-90
2023/06/17 03:10:09;;;;;;;;;;;25.00;43.20;;;;;;4915808;29;19911;-90
2023/06/17 03:12:34;;;;;;;;;;;25.00;43.20;;;;;;4920730;29;20202;-89
2023/06/17 03:15:00;;;;;;;;;;;24.90;43.20;;;;;;4905205;29;19911;-90
2023/06/17 03:17:27;;;;;;;;;;;24.90;43.20;;;;;;4919571;29;19912;-90
2023/06/17 03:19:53;;;;;;;;;;;24.90;43.20;;;;;;4918854;29;19917;-90
2023/06/17 03:22:18;;;;;;;;;;;24.90;43.30;;;;;;4919489;29;19911;-90
2023/06/17 03:24:44;;;;;;;;;;;24.80;43.30;;;;;;4919237;29;20269;-90
2023/06/17 03:27:10;;;;;;;;;;;24.80;43.20;;;;;;4919009;29;20009;-89
2023/06/17 03:29:39;;;;;;;;;;;24.80;43.30;;;;;;4936129;29;19915;-90
2023/06/17 03:32:04;;;;;;;;;;;24.80;43.30;;;;;;4919413;29;20068;-89
2023/06/17 03:34:31;;;;;;;;;;;24.80;43.30;;;;;;4924131;29;19911;-90
2023/06/17 03:36:59;;;;;;;;;;;24.80;43.30;;;;;;4920664;29;19922;-90
2023/06/17 03:39:28;;;;;;;;;;;24.70;43.60;;;;;;4918263;29;19911;-90
2023/06/17 03:41:53;;;;;;;;;;;24.70;43.30;;;;;;4918522;29;19918;-90
2023/06/17 03:44:18;;;;;;;;;;;24.70;43.30;;;;;;4919617;29;19911;-90
2023/06/17 03:46:44;;;;;;;;;;;24.70;43.30;;;;;;4918774;29;19966;-90
2023/06/17 03:49:10;;;;;;;;;;;24.70;43.30;;;;;;4920459;29;19915;-90
2023/06/17 03:51:36;;;;;;;;;;;24.70;43.30;;;;;;4919880;29;19981;-90
2023/06/17 03:54:02;;;;;;;;;;;24.70;43.40;;;;;;4919400;29;19915;-90
2023/06/17 03:56:28;;;;;;;;;;;24.70;43.30;;;;;;4919753;29;20053;-90
2023/06/17 03:58:54;;;;;;;;;;;24.70;43.40;;;;;;4919287;29;19950;-90
2023/06/17 04:01:19;;;;;;;;;;;24.60;43.30;;;;;;4919756;29;19931;-89
2023/06/17 04:03:45;;;;;;;;;;;24.70;43.40;;;;;;4918881;29;19919;-89
2023/06/17 04:06:10;;;;;;;;;;;24.70;43.40;;;;;;4919486;29;19919;-89
2023/06/17 04:08:36;;;;;;;;;;;24.60;43.30;;;;;;4919793;29;19954;-89
2023/06/17 04:11:02;;;;;;;;;;;24.60;43.40;;;;;;4919089;29;19958;-89
2023/06/17 04:13:31;;;;;;;;;;;24.60;43.40;;;;;;4919366;29;20207;-89
2023/06/17 04:15:56;;;;;;;;;;;24.60;43.40;;;;;;4918763;29;20226;-89
2023/06/17 04:18:22;;;;;;;;;;;24.60;43.40;;;;;;4918069;29;19998;-89
2023/06/17 04:20:49;;;;;;;;;;;24.60;43.50;;;;;;4918088;29;20048;-89
2023/06/17 04:23:15;;;;;;;;;;;24.60;43.40;;;;;;4916172;29;19953;-89
2023/06/17 04:25:43;;;;;;;;;;;24.60;43.80;;;;;;4918495;29;19958;-89
2023/06/17 04:28:12;;;;;;;;;;;24.70;43.50;;;;;;4918526;29;19911;-89
2023/06/17 04:30:39;;;;;;;;;;;24.70;43.50;;;;;;4916898;29;20219;-89
2023/06/17 04:33:11;;;;;;;;;;;24.70;43.50;;;;;;4918174;29;19911;-89
2023/06/17 04:35:41;;;;;;;;;;;24.70;43.40;;;;;;4916928;29;19919;-89
2023/06/17 04:38:07;;;;;;;;;;;24.70;43.90;;;;;;4917774;29;19983;-89
2023/06/17 04:40:36;;;;;;;;;;;24.70;43.50;;;;;;4917854;29;20171;-89
2023/06/17 04:43:02;;;;;;;;;;;24.80;43.50;;;;;;4917472;29;19965;-89
2023/06/17 04:45:30;;;;;;;;;;;24.80;43.50;;;;;;4918720;29;20001;-89
2023/06/17 04:48:03;;;;;;;;;;;24.80;43.50;;;;;;4917540;29;19990;-89
2023/06/17 04:50:29;;;;;;;;;;;24.80;43.40;;;;;;4916225;29;19919;-89
2023/06/17 04:52:54;;;;;;;;;;;24.90;43.40;;;;;;4916333;29;19911;-89
2023/06/17 04:55:23;;;;;;;;;;;24.90;43.50;;;;;;4917092;29;20044;-89
2023/06/17 04:57:51;;;;;;;;;;;24.90;43.40;;;;;;4916569;29;19911;-89
2023/06/17 05:00:20;;;;;;;;;;;24.90;43.40;;;;;;4916429;29;19995;-89
2023/06/17 05:02:46;;;;;;;;;;;24.90;43.40;;;;;;4917452;29;19911;-89
2023/06/17 05:05:12;;;;;;;;;;;25.00;43.50;;;;;;4916490;29;19998;-89
2023/06/17 05:07:37;;;;;;;;;;;25.00;43.40;;;;;;4900487;29;20015;-89
2023/06/17 05:10:03;;;;;;;;;;;25.00;43.40;;;;;;4916777;29;20184;-89
2023/06/17 05:12:28;;;;;;;;;;;25.10;43.50;;;;;;4916177;29;20221;-89
2023/06/17 05:14:54;;;;;;;;;;;25.00;43.40;;;;;;4915785;29;19912;-89
2023/06/17 05:17:20;;;;;;;;;;;25.10;43.50;;;;;;4915832;29;19997;-89
2023/06/17 05:19:45;;;;;;;;;;;25.10;43.40;;;;;;4916006;29;19912;-89
2023/06/17 05:22:11;;;;;;;;;;;25.10;43.40;;;;;;4916376;29;19919;-89
2023/06/17 05:24:36;;;;;;;;;;;25.20;43.40;;;;;;4915663;29;19922;-89
2023/06/17 05:27:02;;;;;;;;;;;25.20;43.40;;;;;;4916616;29;19915;-90
2023/06/17 05:29:27;;;;;;;;;;;25.20;43.30;;;;;;4916397;29;19911;-89
2023/06/17 05:31:53;;;;;;;;;;;25.30;43.30;;;;;;4916058;29;20064;-89
2023/06/17 05:34:19;;;;;;;;;;;25.40;43.40;;;;;;4915365;29;19911;-89
2023/06/17 05:36:44;;;;;;;;;;;25.40;43.30;;;;;;4916080;29;20094;-89
2023/06/17 05:39:10;;;;;;;;;;;25.40;43.30;;;;;;4916219;29;19927;-89
2023/06/17 05:41:38;;;;;;;;;;;25.50;43.30;;;;;;4916652;29;19911;-89
2023/06/17 05:44:04;;;;;;;;;;;25.50;43.10;;;;;;4915100;29;19912;-89
2023/06/17 05:46:29;;;;;;;;;;;25.60;43.20;;;;;;4914529;29;19924;-90
2023/06/17 05:48:55;;;;;;;;;;;25.60;43.30;;;;;;4915533;29;19921;-89
2023/06/17 05:51:21;;;;;;;;;;;25.70;43.20;;;;;;4914650;29;20071;-89
2023/06/17 05:53:50;;;;;;;;;;;25.70;43.10;;;;;;4914624;29;20014;-89
2023/06/17 05:56:16;;;;;;;;;;;25.70;43.40;;;;;;4914287;29;20484;-89
2023/06/17 05:58:42;;;;;;;;;;;25.80;43.00;;;;;;4915783;29;20248;-89
2023/06/17 06:01:11;;;;;;;;;;;25.90;43.10;;;;;;4915637;29;20272;-90
2023/06/17 06:03:36;;;;;;;;;;;25.90;42.90;;;;;;4915375;29;19939;-90
2023/06/17 06:06:02;;;;;;;;;;;26.00;42.90;;;;;;4913700;29;19915;-90
2023/06/17 06:08:27;;;;;;;;;;;26.10;42.90;;;;;;4913266;29;20007;-90
2023/06/17 06:10:53;;;;;;;;;;;26.10;42.90;;;;;;4914836;29;19921;-90
2023/06/17 06:13:19;;;;;;;;;;;26.20;42.90;;;;;;4913205;29;19911;-89
2023/06/17 06:15:44;;;;;;;;;;;26.20;42.80;;;;;;4913988;29;19942;-89
2023/06/17 06:18:10;;;;;;;;;;;26.30;42.80;;;;;;4913650;29;19923;-89
2023/06/17 06:20:35;;;;;;;;;;;26.40;42.80;;;;;;4914314;29;19950;-90
2023/06/17 06:23:01;;;;;;;;;;;26.40;42.70;;;;;;4916756;29;20018;-89
2023/06/17 06:25:27;;;;;;;;;;;26.50;42.70;;;;;;4919683;29;20418;-91
2023/06/17 06:27:52;;;;;;;;;;;26.60;42.60;;;;;;4916812;29;19911;-90
2023/06/17 06:30:18;;;;;;;;;;;26.60;42.60;;;;;;4916295;29;20116;-90
2023/06/17 06:32:46;;;;;;;;;;;26.80;42.50;;;;;;4916638;29;19911;-89
2023/06/17 06:35:13;;;;;;;;;;;26.80;42.30;;;;;;4914746;29;19915;-89
2023/06/17 06:37:38;;;;;;;;;;;26.90;42.40;;;;;;4913092;29;19916;-90
2023/06/17 06:40:05;;;;;;;;;;;27.00;42.30;;;;;;4914311;29;20189;-90
2023/06/17 06:42:30;;;;;;;;;;;27.10;42.40;;;;;;4916416;29;19919;-90
2023/06/17 06:44:59;;;;;;;;;;;27.10;42.30;;;;;;4913824;29;20239;-90
2023/06/17 06:47:28;;;;;;;;;;;27.20;42.30;;;;;;4916361;29;19911;-90
2023/06/17 06:49:56;;;;;;;;;;;27.30;42.30;;;;;;4919529;29;19939;-90
2023/06/17 06:52:22;;;;;;;;;;;27.40;42.20;;;;;;4919794;29;20256;-90
2023/06/17 06:54:49;;;;;;;;;;;27.50;42.20;;;;;;4925224;29;20338;-90
2023/06/17 06:57:15;;;;;;;;;;;27.50;41.90;;;;;;4919223;29;20348;-90
2023/06/17 06:59:40;;;;;;;;;;;27.60;42.00;;;;;;4917784;29;19919;-89
2023/06/17 07:02:06;;;;;;;;;;;27.70;41.90;;;;;;4915768;29;19919;-90
2023/06/17 07:04:32;;;;;;;;;;;27.80;42.00;;;;;;4914854;29;19918;-89
2023/06/17 07:06:57;;;;;;;;;;;27.80;42.00;;;;;;4916804;29;20413;-90
2023/06/17 07:09:23;;;;;;;;;;;27.90;41.90;;;;;;4916575;29;20009;-90
2023/06/17 07:11:48;;;;;;;;;;;27.90;41.90;;;;;;4916506;29;19957;-90
2023/06/17 07:14:18;;;;;;;;;;;28.00;41.90;;;;;;4916828;29;20420;-90
2023/06/17 07:16:43;;;;;;;;;;;28.00;41.80;;;;;;4913417;29;19911;-90
2023/06/17 07:19:09;;;;;;;;;;;28.20;42.00;;;;;;4896931;29;20180;-90
2023/06/17 07:21:38;;;;;;;;;;;28.20;41.80;;;;;;4912295;29;19915;-91
2023/06/17 07:24:03;;;;;;;;;;;28.30;41.90;;;;;;4895779;29;19911;-91
2023/06/17 07:26:32;;;;;;;;;;;28.30;41.80;;;;;;4912678;29;19915;-90
2023/06/17 07:29:00;;;;;;;;;;;28.40;41.90;;;;;;4911871;29;19911;-88
2023/06/17 07:31:30;;;;;;;;;;;28.40;41.70;;;;;;4912763;29;19966;-88
2023/06/17 07:33:56;;;;;;;;;;;28.50;41.80;;;;;;4912035;29;20026;-87
2023/06/17 07:36:21;;;;;;;;;;;28.60;41.80;;;;;;4912602;29;20005;-88
2023/06/17 07:38:51;;;;;;;;;;;28.60;41.60;;;;;;4912481;29;19930;-88
2023/06/17 07:41:17;;;;;;;;;;;28.70;41.60;;;;;;4910391;29;19911;-88
2023/06/17 07:43:42;;;;;;;;;;;28.70;41.60;;;;;;4913268;29;20321;-88
2023/06/17 07:46:08;;;;;;;;;;;28.80;41.60;;;;;;4912476;29;19919;-88
2023/06/17 07:48:33;;;;;;;;;;;28.90;41.60;;;;;;4910873;29;19922;-88
2023/06/17 07:50:59;;;;;;;;;;;28.90;41.60;;;;;;4912128;29;20184;-88
2023/06/17 07:53:24;;;;;;;;;;;29.00;41.40;;;;;;4911548;29;20176;-88
2023/06/17 07:55:52;;;;;;;;;;;29.10;41.40;;;;;;4912177;29;19919;-88
2023/06/17 07:58:18;;;;;;;;;;;29.20;41.30;;;;;;4911745;29;20611;-88
2023/06/17 08:00:43;;;;;;;;;;;29.30;41.30;;;;;;4911038;29;19919;-88
2023/06/17 08:03:09;;;;;;;;;;;29.30;41.30;;;;;;4910321;29;19911;-88
2023/06/17 08:05:36;;;;;;;;;;;29.30;41.10;;;;;;4910322;29;20049;-91
2023/06/17 08:08:02;;;;;;;;;;;29.40;41.20;;;;;;4910623;29;19939;-90
2023/06/17 08:10:28;;;;;;;;;;;29.40;41.20;;;;;;4913354;29;20073;-91
2023/06/17 08:12:53;;;;;;;;;;;29.50;41.10;;;;;;4911730;29;20001;-90
2023/06/17 08:15:19;;;;;;;;;;;29.50;41.20;;;;;;4912251;29;20176;-90
2023/06/17 08:17:48;;;;;;;;;;;29.60;41.20;;;;;;4909516;29;20172;-90
2023/06/17 08:20:15;;;;;;;;;;;29.60;41.10;;;;;;4907973;29;19911;-90
2023/06/17 08:22:41;;;;;;;;;;;29.60;41.10;;;;;;4909642;29;20275;-91
2023/06/17 08:25:07;;;;;;;;;;;29.60;41.00;;;;;;4910244;29;20374;-90
2023/06/17 08:27:37;;;;;;;;;;;29.70;41.10;;;;;;4908193;29;19990;-91
2023/06/17 08:30:03;;;;;;;;;;;29.70;41.00;;;;;;4908656;29;19987;-90
2023/06/17 08:32:32;;;;;;;;;;;29.80;41.00;;;;;;4911278;29;19950;-91
2023/06/17 08:35:00;;;;;;;;;;;29.80;40.90;;;;;;4910947;29;20099;-91
2023/06/17 08:37:29;;;;;;;;;;;29.80;40.90;;;;;;4911395;29;20264;-90
2023/06/17 08:39:57;;;;;;;;;;;29.90;41.00;;;;;;4912288;29;19919;-90
2023/06/17 08:42:23;;;;;;;;;;;29.90;40.90;;;;;;4912118;29;19942;-91
2023/06/17 08:44:48;;;;;;;;;;;29.90;41.00;;;;;;4912782;29;19911;-91
2023/06/17 08:47:18;;;;;;;;;;;29.90;41.10;;;;;;4911554;29;19915;-90
2023/06/17 08:49:44;;;;;;;;;;;29.90;41.10;;;;;;4909851;29;19919;-91
2023/06/17 08:52:16;;;;;;;;;;;29.90;41.10;;;;;;4909267;29;19912;-88
2023/06/17 08:54:42;;;;;;;;;;;29.90;41.10;;;;;;4912014;29;19911;-88
2023/06/17 08:57:12;;;;;;;;;;;30.00;41.10;;;;;;4910909;29;20041;-88
2023/06/17 08:59:41;;;;;;;;;;;30.00;41.10;;;;;;4909839;29;19912;-88
2023/06/17 09:02:07;;;;;;;;;;;30.00;41.20;;;;;;4911082;29;20164;-88
2023/06/17 09:04:36;;;;;;;;;;;30.10;41.30;;;;;;4909347;29;20500;-89
2023/06/17 09:07:06;;;;;;;;;;;30.10;41.20;;;;;;4910132;29;19927;-88
2023/06/17 09:09:32;;;;;;;;;;;30.10;41.20;;;;;;4908152;29;20041;-88
2023/06/17 09:12:08;;;;;;;;;;;30.10;41.20;;;;;;4910513;29;19919;-88
2023/06/17 09:14:36;;;;;;;;;;;30.20;41.30;;;;;;4909039;29;19942;-88
2023/06/17 09:17:02;;;;;;;;;;;30.20;41.30;;;;;;4911582;29;19965;-89
2023/06/17 09:19:38;;;;;;;;;;;30.20;41.40;;;;;;4909580;29;20432;-90
2023/06/17 09:22:05;;;;;;;;;;;30.20;41.30;;;;;;4908875;29;20211;-90
2023/06/17 09:24:31;;;;;;;;;;;30.20;41.40;;;;;;4908691;29;19911;-89
2023/06/17 09:26:56;;;;;;;;;;;30.20;41.30;;;;;;4908454;29;19926;-90
2023/06/17 09:29:22;;;;;;;;;;;30.30;41.30;;;;;;4908364;29;19915;-90
2023/06/17 09:31:55;;;;;;;;;;;30.30;41.30;;;;;;4906819;29;19963;-90
2023/06/17 09:34:21;;;;;;;;;;;30.30;41.30;;;;;;4907318;29;19911;-89
2023/06/17 09:36:51;;;;;;;;;;;30.30;41.40;;;;;;4908569;29;19915;-89
2023/06/17 09:39:18;;;;;;;;;;;30.30;41.40;;;;;;4909373;29;20293;-90
2023/06/17 09:41:43;;;;;;;;;;;30.30;41.50;;;;;;4909006;29;19934;-90
2023/06/17 09:44:10;;;;;;;;;;;30.30;41.50;;;;;;4906664;29;20268;-91
2023/06/17 09:46:39;;;;;;;;;;;30.30;41.60;;;;;;4906934;29;20096;-90
2023/06/17 09:49:16;;;;;;;;;;;30.30;41.60;;;;;;4903681;29;20244;-90
2023/06/17 09:51:42;;;;;;;;;;;30.30;41.60;;;;;;4905201;29;19911;-89
2023/06/17 09:54:11;;;;;;;;;;;30.30;41.40;;;;;;4910536;29;19975;-89
2023/06/17 09:56:37;;;;;;;;;;;30.40;41.40;;;;;;4908842;29;19987;-90
2023/06/17 09:59:03;;;;;;;;;;;30.40;41.40;;;;;;4909716;29;19915;-90
2023/06/17 10:01:30;;;;;;;;;;;30.40;41.40;;;;;;4910035;29;19922;-90
2023/06/17 10:04:00;;;;;;;;;;;30.40;41.80;;;;;;4909136;29;19915;-89
2023/06/17 10:06:28;;;;;;;;;;;30.40;41.40;;;;;;4910817;29;19959;-89
2023/06/17 10:08:54;;;;;;;;;;;30.40;41.40;;;;;;4907380;29;19911;-89
2023/06/17 10:11:23;;;;;;;;;;;30.50;41.40;;;;;;4908255;29;20003;-91
2023/06/17 10:13:53;;;;;;;;;;;30.50;41.40;;;;;;4908428;29;19911;-89
2023/06/17 10:16:18;;;;;;;;;;;30.60;41.40;;;;;;4908253;29;20373;-90
2023/06/17 10:18:45;;;;;;;;;;;30.50;41.30;;;;;;4907343;29;19918;-90
2023/06/17 10:21:12;;;;;;;;;;;30.60;41.30;;;;;;4905089;29;20076;-89
2023/06/17 10:23:38;;;;;;;;;;;30.60;41.30;;;;;;4905633;29;19910;-89
2023/06/17 10:26:07;;;;;;;;;;;30.60;41.30;;;;;;4906475;29;20116;-89
2023/06/17 10:28:51;;;;;;;;;;;30.60;41.20;;;;;;4906562;29;19962;-90
2023/06/17 10:31:26;;;;;;;;;;;30.60;41.20;;;;;;4890221;29;19918;-89
2023/06/17 10:33:53;;;;;;;;;;;30.70;41.20;;;;;;4907090;29;20283;-90
2023/06/17 10:36:25;;;;;;;;;;;30.70;41.10;;;;;;4906363;29;20332;-90
2023/06/17 10:38:57;;;;;;;;;;;30.70;41.10;;;;;;4906336;29;20034;-90
2023/06/17 10:41:39;;;;;;;;;;;30.70;41.10;;;;;;4906579;29;19912;-90
2023/06/17 10:44:19;;;;;;;;;;;30.80;41.10;;;;;;4904639;29;20492;-90
2023/06/17 10:46:46;;;;;;;;;;;30.80;41.00;;;;;;4906909;29;19973;-90
2023/06/17 10:49:16;;;;;;;;;;;30.80;41.00;;;;;;4906822;29;20001;-90
2023/06/17 10:51:48;;;;;;;;;;;30.80;41.00;;;;;;4909188;29;19974;-89
2023/06/17 10:54:30;;;;;;;;;;;30.80;41.00;;;;;;4908421;29;20157;-90
2023/06/17 10:56:56;;;;;;;;;;;30.80;41.10;;;;;;4905115;29;19915;-90
2023/06/17 10:59:29;;;;;;;;;;;30.80;40.90;;;;;;4905183;29;19969;-88
2023/06/17 11:02:08;;;;;;;;;;;30.80;41.00;;;;;;4905658;29;19911;-90
2023/06/17 11:04:40;;;;;;;;;;;30.80;41.00;;;;;;4905606;29;19915;-89
2023/06/17 11:07:09;;;;;;;;;;;30.80;41.00;;;;;;4906836;29;19927;-89
2023/06/17 11:09:36;;;;;;;;;;;30.80;41.10;;;;;;4911712;29;20152;-90
2023/06/17 11:12:02;;;;;;;;;;;30.80;41.00;;;;;;4906838;29;19911;-90
2023/06/17 11:14:29;;;;;;;;;;;30.90;41.00;;;;;;4906831;29;19911;-90
2023/06/17 11:16:55;;;;;;;;;;;30.90;41.00;;;;;;4907721;29;20056;-90
2023/06/17 11:19:20;;;;;;;;;;;30.90;41.00;;;;;;4906140;29;19911;-89
2023/06/17 11:21:50;;;;;;;;;;;30.90;41.00;;;;;;4906818;29;20082;-89
2023/06/17 11:24:18;;;;;;;;;;;30.90;41.00;;;;;;4898888;29;20026;-90
2023/06/17 11:26:44;;;;;;;;;;;30.90;41.00;;;;;;4889313;29;19923;-89
2023/06/17 11:29:10;;;;;;;;;;;30.90;41.00;;;;;;4886797;29;19912;-89
2023/06/17 11:31:40;;;;;;;;;;;30.90;41.40;;;;;;4885271;29;19911;-89
2023/06/17 11:34:06;;;;;;;;;;;30.90;41.00;;;;;;4888154;29;19958;-89
2023/06/17 11:36:37;;;;;;;;;;;30.90;40.90;;;;;;4886716;29;20069;-89
2023/06/17 11:39:03;;;;;;;;;;;30.90;41.00;;;;;;4886825;29;19926;-90
2023/06/17 11:41:29;;;;;;;;;;;30.90;41.10;;;;;;4884976;29;19911;-90
2023/06/17 11:43:54;;;;;;;;;;;30.90;41.10;;;;;;4886301;29;19911;-89
2023/06/17 11:46:20;;;;;;;;;;;30.90;41.00;;;;;;4887657;29;19923;-90
2023/06/17 11:48:47;;;;;;;;;;;30.90;40.90;;;;;;4887644;29;19926;-89
2023/06/17 11:51:17;;;;;;;;;;;30.90;41.00;;;;;;4887446;29;20208;-90
2023/06/17 11:53:49;;;;;;;;;;;30.90;41.00;;;;;;4888285;29;20014;-90
2023/06/17 11:56:21;;;;;;;;;;;30.90;41.00;;;;;;4889404;29;20181;-90
2023/06/17 11:58:49;;;;;;;;;;;30.90;41.10;;;;;;4890304;29;20074;-90
2023/06/17 12:01:15;;;;;;;;;;;30.90;41.10;;;;;;4888638;29;20039;-89
2023/06/17 12:03:45;;;;;;;;;;;30.90;40.90;;;;;;4884330;29;19990;-90
2023/06/17 12:06:20;;;;;;;;;;;30.90;41.00;;;;;;4888559;29;19915;-91
2023/06/17 12:08:55;;;;;;;;;;;30.90;38.60;;;;;;4887246;29;19974;-89
2023/06/17 12:11:27;;;;;;;;;;;30.90;40.50;;;;;;4889139;29;20041;-90
2023/06/17 12:13:57;;;;;;;;;;;30.90;40.20;;;;;;4891474;29;19947;-90
2023/06/17 12:16:23;;;;;;;;;;;30.90;40.20;;;;;;4890088;29;19949;-90
2023/06/17 12:18:50;;;;;;;;;;;30.90;40.90;;;;;;4892585;29;19911;-90
2023/06/17 12:21:17;;;;;;;;;;;30.90;41.00;;;;;;4891827;29;20074;-90
2023/06/17 12:23:43;;;;;;;;;;;30.90;41.00;;;;;;4894952;29;19922;-90
2023/06/17 12:26:09;;;;;;;;;;;30.90;41.00;;;;;;4892315;29;19915;-89
2023/06/17 12:28:34;;;;;;;;;;;30.80;41.10;;;;;;4890335;29;19912;-90
2023/06/17 12:31:03;;;;;;;;;;;30.80;39.90;;;;;;4892007;29;19911;-90
2023/06/17 12:33:28;;;;;;;;;;;30.80;40.20;;;;;;4889558;29;19911;-90
2023/06/17 12:35:54;;;;;;;;;;;30.80;41.00;;;;;;4891205;29;19922;-90
2023/06/17 12:38:20;;;;;;;;;;;30.80;40.80;;;;;;4887849;29;20383;-90
2023/06/17 12:40:46;;;;;;;;;;;30.80;40.80;;;;;;4888436;29;19915;-89
2023/06/17 12:43:11;;;;;;;;;;;30.80;40.00;;;;;;4888016;29;20172;-89
2023/06/17 12:45:37;;;;;;;;;;;30.80;39.20;;;;;;4885995;29;20193;-88
2023/06/17 12:48:03;;;;;;;;;;;30.80;40.40;;;;;;4888078;29;20341;-89
2023/06/17 12:50:28;;;;;;;;;;;30.80;40.60;;;;;;4886516;29;20004;-90
2023/06/17 12:52:55;;;;;;;;;;;30.80;41.10;;;;;;4889883;29;20180;-90
2023/06/17 12:55:22;;;;;;;;;;;30.80;39.20;;;;;;4888248;29;20294;-90
2023/06/17 12:57:47;;;;;;;;;;;30.80;40.30;;;;;;4888211;29;20240;-89
2023/06/17 13:00:14;;;;;;;;;;;30.80;40.80;;;;;;4889180;29;20086;-89
2023/06/17 13:02:40;;;;;;;;;;;30.80;41.00;;;;;;4887634;29;20142;-88
2023/06/17 13:05:07;;;;;;;;;;;30.80;41.10;;;;;;4887691;29;19974;-90
2023/06/17 13:07:35;;;;;;;;;;;30.80;40.80;;;;;;4889014;29;19912;-90
2023/06/17 13:10:04;;;;;;;;;;;30.80;41.50;;;;;;4896023;29;20239;-87
2023/06/17 13:12:30;;;;;;;;;;;30.80;41.60;;;;;;4891340;29;19911;-89
2023/06/17 13:14:56;;;;;;;;;;;30.80;39.90;;;;;;4887695;29;20299;-89
2023/06/17 13:17:24;;;;;;;;;;;30.80;40.90;;;;;;4888660;29;19922;-88
2023/06/17 13:19:53;;;;;;;;;;;30.80;41.40;;;;;;4886297;29;20300;-88
2023/06/17 13:22:20;;;;;;;;;;;30.80;40.30;;;;;;4887556;29;19992;-89
2023/06/17 13:24:46;;;;;;;;;;;30.80;41.50;;;;;;4889352;29;19912;-89
2023/06/17 13:27:18;;;;;;;;;;;30.80;38.60;;;;;;4888334;29;19919;-89
2023/06/17 13:29:43;;;;;;;;;;;30.80;40.10;;;;;;4887421;29;20114;-88
2023/06/17 13:32:10;;;;;;;;;;;30.80;38.80;;;;;;4888360;29;20002;-89
2023/06/17 13:34:51;;;;;;;;;;;30.80;39.40;;;;;;4892524;29;19912;-89
2023/06/17 13:37:17;;;;;;;;;;;30.80;41.20;;;;;;4887990;29;19915;-88
2023/06/17 13:39:43;;;;;;;;;;;30.80;41.30;;;;;;4890223;29;20006;-88
2023/06/17 13:42:09;;;;;;;;;;;30.80;40.50;;;;;;4886686;29;20256;-89
2023/06/17 13:44:38;;;;;;;;;;;30.80;40.40;;;;;;4887334;29;20014;-89
2023/06/17 13:47:04;;;;;;;;;;;30.80;37.40;;;;;;4889319;29;19915;-89
2023/06/17 13:49:31;;;;;;;;;;;30.80;38.70;;;;;;4888929;29;19915;-89
2023/06/17 13:52:00;;;;;;;;;;;30.80;38.80;;;;;;4887198;29;20244;-89
2023/06/17 13:54:28;;;;;;;;;;;30.80;37.70;;;;;;4890021;29;19912;-89
2023/06/17 13:56:54;;;;;;;;;;;30.80;38.60;;;;;;4892738;29;19922;-89
2023/06/17 13:59:20;;;;;;;;;;;30.80;40.20;;;;;;4894200;29;19912;-90
2023/06/17 14:01:46;;;;;;;;;;;30.80;38.80;;;;;;4893285;29;19912;-89
2023/06/17 14:04:11;;;;;;;;;;;30.80;37.60;;;;;;4894718;29;20006;-89
2023/06/17 14:06:37;;;;;;;;;;;30.80;38.50;;;;;;4894852;29;20033;-89
2023/06/17 14:09:06;;;;;;;;;;;30.80;37.60;;;;;;4895279;29;19911;-89
2023/06/17 14:11:33;;;;;;;;;;;30.80;39.50;;;;;;4879813;29;19916;-89
2023/06/17 14:13:58;;;;;;;;;;;30.80;38.60;;;;;;4894755;29;20019;-89
2023/06/17 14:16:26;;;;;;;;;;;30.80;38.00;;;;;;4894101;29;19978;-89